createdAt,value
2018-05-13T00:01:08.000Z,99795
2018-05-13T00:03:08.000Z,99790
2018-05-13T00:04:08.000Z,99796
2018-05-13T00:06:08.000Z,99791
2018-05-13T00:08:08.000Z,99786
2018-05-13T00:09:08.000Z,99784
2018-05-13T00:11:08.000Z,99786
2018-05-13T00:12:53.000Z,99784
2018-05-13T00:14:08.000Z,99782
2018-05-13T00:16:08.000Z,99786
2018-05-13T00:17:08.000Z,99786
2018-05-13T00:19:08.000Z,99780
2018-05-13T00:21:08.000Z,99781
2018-05-13T00:23:08.000Z,99782
2018-05-13T00:25:08.000Z,99784
2018-05-13T00:27:08.000Z,99787
2018-05-13T00:29:08.000Z,99785
2018-05-13T00:31:08.000Z,99787
2018-05-13T00:32:08.000Z,99787
2018-05-13T00:33:08.000Z,99781
2018-05-13T00:34:08.000Z,99779
2018-05-13T00:36:08.000Z,99779
2018-05-13T00:37:08.000Z,99784
2018-05-13T00:39:08.000Z,99781
2018-05-13T00:40:08.000Z,99781
2018-05-13T00:41:08.000Z,99790
2018-05-13T00:43:08.000Z,99779
2018-05-13T00:45:08.000Z,99781
2018-05-13T00:47:08.000Z,99781
2018-05-13T00:49:08.000Z,99782
2018-05-13T00:50:08.000Z,99779
2018-05-13T00:51:08.000Z,99782
2018-05-13T00:52:53.000Z,99780
2018-05-13T00:54:08.000Z,99789
2018-05-13T00:55:08.000Z,99781
2018-05-13T00:57:08.000Z,99784
2018-05-13T00:58:08.000Z,99776
2018-05-13T01:00:08.000Z,99778
2018-05-13T01:01:08.000Z,99781
2018-05-13T01:03:08.000Z,99777
2018-05-13T01:05:08.000Z,99772
2018-05-13T01:07:08.000Z,99772
2018-05-13T01:09:08.000Z,99764
2018-05-13T01:10:08.000Z,99770
2018-05-13T01:11:08.000Z,99767
2018-05-13T01:12:53.000Z,99766
2018-05-13T01:14:08.000Z,99766
2018-05-13T01:16:08.000Z,99764
2018-05-13T01:18:08.000Z,99761
2018-05-13T01:19:08.000Z,99765
2018-05-13T01:20:08.000Z,99772
2018-05-13T01:22:08.000Z,99766
2018-05-13T01:24:08.000Z,99765
2018-05-13T01:25:08.000Z,99764
2018-05-13T01:26:53.000Z,99765
2018-05-13T01:28:08.000Z,99761
2018-05-13T01:29:08.000Z,99770
2018-05-13T01:31:08.000Z,99761
2018-05-13T01:33:08.000Z,99757
2018-05-13T01:35:08.000Z,99752
2018-05-13T01:36:08.000Z,99748
2018-05-13T01:37:08.000Z,99749
2018-05-13T01:38:53.000Z,99751
2018-05-13T01:40:08.000Z,99753
2018-05-13T01:41:08.000Z,99751
2018-05-13T01:42:53.000Z,99750
2018-05-13T01:44:08.000Z,99753
2018-05-13T01:46:08.000Z,99754
2018-05-13T01:48:08.000Z,99753
2018-05-13T01:50:08.000Z,99751
2018-05-13T01:51:08.000Z,99754
2018-05-13T01:52:08.000Z,99752
2018-05-13T01:54:08.000Z,99753
2018-05-13T01:56:08.000Z,99750
2018-05-13T01:58:08.000Z,99746
2018-05-13T02:00:08.000Z,99753
2018-05-13T02:02:08.000Z,99747
2018-05-13T02:03:08.000Z,99751
2018-05-13T02:04:53.000Z,99751
2018-05-13T02:06:08.000Z,99746
2018-05-13T02:07:08.000Z,99748
2018-05-13T02:09:08.000Z,99746
2018-05-13T02:10:08.000Z,99740
2018-05-13T02:12:08.000Z,99743
2018-05-13T02:14:08.000Z,99741
2018-05-13T02:16:08.000Z,99738
2018-05-13T02:18:08.000Z,99731
2018-05-13T02:19:53.000Z,99736
2018-05-13T02:21:08.000Z,99736
2018-05-13T02:22:08.000Z,99736
2018-05-13T02:24:08.000Z,99732
2018-05-13T02:25:08.000Z,99731
2018-05-13T02:27:08.000Z,99735
2018-05-13T02:28:53.000Z,99734
2018-05-13T02:30:08.000Z,99730
2018-05-13T02:31:08.000Z,99736
2018-05-13T02:32:08.000Z,99730
2018-05-13T02:34:08.000Z,99731
2018-05-13T02:35:08.000Z,99732
2018-05-13T02:37:08.000Z,99739
2018-05-13T02:38:08.000Z,99737
2018-05-13T02:40:08.000Z,99737
2018-05-13T02:41:38.000Z,99734
2018-05-13T02:43:08.000Z,99729
2018-05-13T02:45:08.000Z,99730
2018-05-13T02:47:08.000Z,99730
2018-05-13T02:49:08.000Z,99735
2018-05-13T02:50:08.000Z,99732
2018-05-13T02:52:08.000Z,99734
2018-05-13T02:53:08.000Z,99738
2018-05-13T02:54:53.000Z,99727
2018-05-13T02:56:08.000Z,99737
2018-05-13T02:57:08.000Z,99732
2018-05-13T02:59:08.000Z,99727
2018-05-13T03:00:08.000Z,99730
2018-05-13T03:01:08.000Z,99728
2018-05-13T03:03:08.000Z,99730
2018-05-13T03:05:08.000Z,99731
2018-05-13T03:07:08.000Z,99737
2018-05-13T03:09:08.000Z,99741
2018-05-13T03:10:08.000Z,99743
2018-05-13T03:11:53.000Z,99745
2018-05-13T03:13:08.000Z,99744
2018-05-13T03:15:08.000Z,99744
2018-05-13T03:17:08.000Z,99742
2018-05-13T03:18:08.000Z,99742
2018-05-13T03:20:08.000Z,99737
2018-05-13T03:22:08.000Z,99736
2018-05-13T03:23:08.000Z,99734
2018-05-13T03:25:08.000Z,99733
2018-05-13T03:26:08.000Z,99741
2018-05-13T03:27:08.000Z,99741
2018-05-13T03:28:08.000Z,99734
2018-05-13T03:30:08.000Z,99741
2018-05-13T03:31:08.000Z,99736
2018-05-13T03:33:08.000Z,99735
2018-05-13T03:35:08.000Z,99737
2018-05-13T03:37:08.000Z,99735
2018-05-13T03:38:53.000Z,99737
2018-05-13T03:40:08.000Z,99738
2018-05-13T03:41:53.000Z,99733
2018-05-13T03:43:08.000Z,99736
2018-05-13T03:45:08.000Z,99737
2018-05-13T03:47:08.000Z,99744
2018-05-13T03:49:08.000Z,99744
2018-05-13T03:51:08.000Z,99751
2018-05-13T03:53:08.000Z,99743
2018-05-13T03:55:08.000Z,99743
2018-05-13T03:56:08.000Z,99750
2018-05-13T03:58:08.000Z,99755
2018-05-13T04:00:08.000Z,99765
2018-05-13T04:02:08.000Z,99747
2018-05-13T04:04:08.000Z,99740
2018-05-13T04:06:08.000Z,99744
2018-05-13T04:07:53.000Z,99749
2018-05-13T04:09:08.000Z,99752
2018-05-13T04:11:08.000Z,99736
2018-05-13T04:12:53.000Z,99737
2018-05-13T04:14:08.000Z,99737
2018-05-13T04:16:08.000Z,99746
2018-05-13T04:17:37.000Z,99757
2018-05-13T04:19:08.000Z,99772
2018-05-13T04:20:08.000Z,99780
2018-05-13T04:21:53.000Z,99776
2018-05-13T04:23:08.000Z,99769
2018-05-13T04:25:08.000Z,99771
2018-05-13T04:27:08.000Z,99771
2018-05-13T04:29:08.000Z,99779
2018-05-13T04:30:08.000Z,99783
2018-05-13T04:32:08.000Z,99781
2018-05-13T04:33:08.000Z,99785
2018-05-13T04:35:08.000Z,99781
2018-05-13T04:37:08.000Z,99787
2018-05-13T04:39:08.000Z,99788
2018-05-13T04:41:08.000Z,99795
2018-05-13T04:42:08.000Z,99792
2018-05-13T04:44:08.000Z,99798
2018-05-13T04:46:08.000Z,99794
2018-05-13T04:47:08.000Z,99795
2018-05-13T04:49:08.000Z,99796
2018-05-13T04:51:08.000Z,99796
2018-05-13T04:53:08.000Z,99800
2018-05-13T04:55:08.000Z,99799
2018-05-13T04:56:08.000Z,99796
2018-05-13T04:58:08.000Z,99790
2018-05-13T04:59:08.000Z,99795
2018-05-13T05:01:08.000Z,99794
2018-05-13T05:02:53.000Z,99797
2018-05-13T05:04:08.000Z,99790
2018-05-13T05:05:08.000Z,99790
2018-05-13T05:06:08.000Z,99790
2018-05-13T05:08:08.000Z,99787
2018-05-13T05:09:08.000Z,99792
2018-05-13T05:10:53.000Z,99791
2018-05-13T05:12:08.000Z,99790
2018-05-13T05:13:08.000Z,99798
2018-05-13T05:14:08.000Z,99793
2018-05-13T05:15:08.000Z,99797
2018-05-13T05:17:08.000Z,99799
2018-05-13T05:19:08.000Z,99801
2018-05-13T05:21:08.000Z,99802
2018-05-13T05:22:08.000Z,99794
2018-05-13T05:24:08.000Z,99801
2018-05-13T05:26:08.000Z,99801
2018-05-13T05:28:08.000Z,99804
2018-05-13T05:29:08.000Z,99801
2018-05-13T05:31:08.000Z,99803
2018-05-13T05:32:08.000Z,99802
2018-05-13T05:33:08.000Z,99802
2018-05-13T05:35:08.000Z,99808
2018-05-13T05:37:08.000Z,99812
2018-05-13T05:38:08.000Z,99814
2018-05-13T05:39:53.000Z,99816
2018-05-13T05:41:08.000Z,99809
2018-05-13T05:43:08.000Z,99818
2018-05-13T05:45:08.000Z,99816
2018-05-13T05:47:08.000Z,99810
2018-05-13T05:48:08.000Z,99814
2018-05-13T05:49:08.000Z,99815
2018-05-13T05:50:08.000Z,99816
2018-05-13T05:52:08.000Z,99818
2018-05-13T05:53:08.000Z,99823
2018-05-13T05:55:08.000Z,99815
2018-05-13T05:56:08.000Z,99813
2018-05-13T05:58:08.000Z,99812
2018-05-13T05:59:08.000Z,99814
2018-05-13T06:01:08.000Z,99812
2018-05-13T06:02:53.000Z,99818
2018-05-13T06:04:08.000Z,99810
2018-05-13T06:05:08.000Z,99811
2018-05-13T06:06:38.000Z,99814
2018-05-13T06:08:08.000Z,99815
2018-05-13T06:09:08.000Z,99814
2018-05-13T06:11:08.000Z,99814
2018-05-13T06:12:08.000Z,99816
2018-05-13T06:14:08.000Z,99825
2018-05-13T06:15:08.000Z,99828
2018-05-13T06:16:08.000Z,99821
2018-05-13T06:18:08.000Z,99825
2018-05-13T06:19:53.000Z,99833
2018-05-13T06:21:09.000Z,99830
2018-05-13T06:23:08.000Z,99837
2018-05-13T06:24:53.000Z,99839
2018-05-13T06:26:08.000Z,99834
2018-05-13T06:28:08.000Z,99837
2018-05-13T06:30:09.000Z,99837
2018-05-13T06:31:09.000Z,99834
2018-05-13T06:32:53.000Z,99836
2018-05-13T06:34:09.000Z,99835
2018-05-13T06:35:53.000Z,99831
2018-05-13T06:37:09.000Z,99833
2018-05-13T06:39:09.000Z,99829
2018-05-13T06:41:09.000Z,99831
2018-05-13T06:43:09.000Z,99842
2018-05-13T06:44:09.000Z,99841
2018-05-13T06:45:09.000Z,99846
2018-05-13T06:47:09.000Z,99847
2018-05-13T06:49:09.000Z,99851
2018-05-13T06:51:09.000Z,99850
2018-05-13T06:53:09.000Z,99850
2018-05-13T06:54:53.000Z,99844
2018-05-13T06:56:09.000Z,99841
2018-05-13T06:58:09.000Z,99838
2018-05-13T06:59:09.000Z,99829
2018-05-13T07:01:09.000Z,99829
2018-05-13T07:02:09.000Z,99827
2018-05-13T07:03:53.000Z,99835
2018-05-13T07:05:09.000Z,99840
2018-05-13T07:07:09.000Z,99843
2018-05-13T07:09:09.000Z,99854
2018-05-13T07:10:09.000Z,99852
2018-05-13T07:12:09.000Z,99857
2018-05-13T07:13:09.000Z,99850
2018-05-13T07:15:09.000Z,99857
2018-05-13T07:16:09.000Z,99854
2018-05-13T07:18:09.000Z,99850
2018-05-13T07:19:09.000Z,99847
2018-05-13T07:21:09.000Z,99845
2018-05-13T07:22:53.000Z,99842
2018-05-13T07:24:09.000Z,99838
2018-05-13T07:26:09.000Z,99836
2018-05-13T07:28:09.000Z,99838
2018-05-13T07:30:09.000Z,99838
2018-05-13T07:32:09.000Z,99836
2018-05-13T07:34:08.000Z,99838
2018-05-13T07:35:38.000Z,99830
2018-05-13T07:37:08.000Z,99833
2018-05-13T07:38:08.000Z,99831
2018-05-13T07:39:08.000Z,99829
2018-05-13T07:41:08.000Z,99831
2018-05-13T07:42:08.000Z,99820
2018-05-13T07:44:08.000Z,99818
2018-05-13T07:45:38.000Z,99824
2018-05-13T07:47:08.000Z,99822
2018-05-13T07:48:08.000Z,99825
2018-05-13T07:50:08.000Z,99822
2018-05-13T07:51:53.000Z,99830
2018-05-13T07:52:53.000Z,99831
2018-05-13T07:54:08.000Z,99829
2018-05-13T07:55:08.000Z,99834
2018-05-13T07:56:53.000Z,99828
2018-05-13T07:58:08.000Z,99834
2018-05-13T08:00:08.000Z,99832
2018-05-13T08:02:08.000Z,99832
2018-05-13T08:03:53.000Z,99838
2018-05-13T08:05:08.000Z,99836
2018-05-13T08:07:08.000Z,99834
2018-05-13T08:09:08.000Z,99834
2018-05-13T08:11:08.000Z,99826
2018-05-13T08:13:08.000Z,99827
2018-05-13T08:15:08.000Z,99827
2018-05-13T08:17:08.000Z,99835
2018-05-13T08:19:08.000Z,99834
2018-05-13T08:21:08.000Z,99834
2018-05-13T08:22:08.000Z,99834
2018-05-13T08:24:08.000Z,99837
2018-05-13T08:26:08.000Z,99837
2018-05-13T08:27:08.000Z,99837
2018-05-13T08:28:53.000Z,99840
2018-05-13T08:30:08.000Z,99841
2018-05-13T08:32:08.000Z,99839
2018-05-13T08:33:08.000Z,99832
2018-05-13T08:35:08.000Z,99833
2018-05-13T08:36:08.000Z,99829
2018-05-13T08:38:08.000Z,99830
2018-05-13T08:40:08.000Z,99823
2018-05-13T08:41:08.000Z,99829
2018-05-13T08:42:53.000Z,99829
2018-05-13T08:44:08.000Z,99831
2018-05-13T08:46:08.000Z,99829
2018-05-13T08:48:08.000Z,99827
2018-05-13T08:49:08.000Z,99827
2018-05-13T08:51:08.000Z,99831
2018-05-13T08:52:08.000Z,99839
2018-05-13T08:54:08.000Z,99836
2018-05-13T08:55:08.000Z,99827
2018-05-13T08:57:08.000Z,99838
2018-05-13T08:59:08.000Z,99841
2018-05-13T09:01:08.000Z,99834
2018-05-13T09:03:08.000Z,99839
2018-05-13T09:04:08.000Z,99836
2018-05-13T09:05:08.000Z,99836
2018-05-13T09:07:08.000Z,99831
2018-05-13T09:08:08.000Z,99830
2018-05-13T09:09:53.000Z,99835
2018-05-13T09:11:08.000Z,99835
2018-05-13T09:13:08.000Z,99841
2018-05-13T09:14:53.000Z,99846
2018-05-13T09:16:08.000Z,99840
2018-05-13T09:18:08.000Z,99842
2018-05-13T09:20:08.000Z,99837
2018-05-13T09:22:08.000Z,99833
2018-05-13T09:23:08.000Z,99830
2018-05-13T09:25:08.000Z,99828
2018-05-13T09:26:38.000Z,99833
2018-05-13T09:28:08.000Z,99829
2018-05-13T09:29:08.000Z,99828
2018-05-13T09:30:38.000Z,99822
2018-05-13T09:32:08.000Z,99827
2018-05-13T09:34:08.000Z,99822
2018-05-13T09:35:08.000Z,99822
2018-05-13T09:36:53.000Z,99822
2018-05-13T09:38:08.000Z,99820
2018-05-13T09:39:08.000Z,99812
2018-05-13T09:40:53.000Z,99810
2018-05-13T09:42:08.000Z,99814
2018-05-13T09:44:08.000Z,99812
2018-05-13T09:46:08.000Z,99814
2018-05-13T09:48:08.000Z,99814
2018-05-13T09:50:08.000Z,99816
2018-05-13T09:51:08.000Z,99813
2018-05-13T09:53:08.000Z,99813
2018-05-13T09:55:08.000Z,99815
2018-05-13T09:57:08.000Z,99812
2018-05-13T09:58:08.000Z,99819
2018-05-13T10:00:08.000Z,99821
2018-05-13T10:02:08.000Z,99818
2018-05-13T10:03:53.000Z,99818
2018-05-13T10:05:08.000Z,99815
2018-05-13T10:06:08.000Z,99820
2018-05-13T10:08:08.000Z,99815
2018-05-13T10:10:08.000Z,99821
2018-05-13T10:12:08.000Z,99826
2018-05-13T10:14:08.000Z,99819
2018-05-13T10:16:08.000Z,99819
2018-05-13T10:17:38.000Z,99823
2018-05-13T10:19:08.000Z,99819
2018-05-13T10:21:08.000Z,99822
2018-05-13T10:22:53.000Z,99831
2018-05-13T10:24:08.000Z,99825
2018-05-13T10:26:08.000Z,99833
2018-05-13T10:28:08.000Z,99829
2018-05-13T10:30:08.000Z,99832
2018-05-13T10:31:08.000Z,99832
2018-05-13T10:32:53.000Z,99844
2018-05-13T10:34:08.000Z,99848
2018-05-13T10:35:08.000Z,99850
2018-05-13T10:37:08.000Z,99853
2018-05-13T10:38:08.000Z,99846
2018-05-13T10:39:53.000Z,99846
2018-05-13T10:41:08.000Z,99842
2018-05-13T10:43:08.000Z,99838
2018-05-13T10:45:08.000Z,99852
2018-05-13T10:46:08.000Z,99843
2018-05-13T10:48:08.000Z,99845
2018-05-13T10:50:08.000Z,99848
2018-05-13T10:52:08.000Z,99847
2018-05-13T10:53:38.000Z,99853
2018-05-13T10:55:08.000Z,99849
2018-05-13T10:57:08.000Z,99852
2018-05-13T10:58:08.000Z,99851
2018-05-13T10:59:53.000Z,99859
2018-05-13T11:01:08.000Z,99865
2018-05-13T11:02:53.000Z,99867
2018-05-13T11:04:08.000Z,99863
2018-05-13T11:06:08.000Z,99866
2018-05-13T11:08:08.000Z,99871
2018-05-13T11:10:08.000Z,99865
2018-05-13T11:12:08.000Z,99870
2018-05-13T11:13:08.000Z,99871
2018-05-13T11:15:08.000Z,99870
2018-05-13T11:17:08.000Z,99850
2018-05-13T11:19:08.000Z,99853
2018-05-13T11:20:08.000Z,99849
2018-05-13T11:21:53.000Z,99849
2018-05-13T11:23:08.000Z,99848
2018-05-13T11:25:08.000Z,99855
2018-05-13T11:26:53.000Z,99865
2018-05-13T11:28:08.000Z,99868
2018-05-13T11:30:08.000Z,99865
2018-05-13T11:32:08.000Z,99867
2018-05-13T11:34:08.000Z,99865
2018-05-13T11:36:08.000Z,99870
2018-05-13T11:37:08.000Z,99874
2018-05-13T11:39:08.000Z,99878
2018-05-13T11:41:08.000Z,99887
2018-05-13T11:42:08.000Z,99883
2018-05-13T11:44:08.000Z,99895
2018-05-13T11:45:08.000Z,99892
2018-05-13T11:46:53.000Z,99899
2018-05-13T11:48:08.000Z,99907
2018-05-13T11:49:08.000Z,99903
2018-05-13T11:51:08.000Z,99898
2018-05-13T11:52:08.000Z,99901
2018-05-13T11:53:53.000Z,99887
2018-05-13T11:55:08.000Z,99886
2018-05-13T11:56:08.000Z,99885
2018-05-13T11:58:08.000Z,99874
2018-05-13T12:00:08.000Z,99872
2018-05-13T12:02:08.000Z,99873
2018-05-13T12:03:53.000Z,99872
2018-05-13T12:05:08.000Z,99873
2018-05-13T12:06:08.000Z,99876
2018-05-13T12:08:08.000Z,99882
2018-05-13T12:10:08.000Z,99911
2018-05-13T12:12:08.000Z,99937
2018-05-13T12:13:08.000Z,99946
2018-05-13T12:15:08.000Z,99962
2018-05-13T12:17:08.000Z,99953
2018-05-13T12:19:08.000Z,99959
2018-05-13T12:21:08.000Z,99930
2018-05-13T12:23:08.000Z,99909
2018-05-13T12:24:53.000Z,99895
2018-05-13T12:26:08.000Z,99891
2018-05-13T12:27:08.000Z,99889
2018-05-13T12:28:08.000Z,99889
2018-05-13T12:30:08.000Z,99865
2018-05-13T12:31:08.000Z,99867
2018-05-13T12:33:08.000Z,99864
2018-05-13T12:35:08.000Z,99865
2018-05-13T12:36:08.000Z,99861
2018-05-13T12:38:08.000Z,99859
2018-05-13T12:39:53.000Z,99855
2018-05-13T12:41:08.000Z,99830
2018-05-13T12:42:08.000Z,99809
2018-05-13T12:44:08.000Z,99806
2018-05-13T12:45:08.000Z,99801
2018-05-13T12:47:08.000Z,99823
2018-05-13T12:49:08.000Z,99834
2018-05-13T12:50:08.000Z,99832
2018-05-13T12:52:08.000Z,99833
2018-05-13T12:53:53.000Z,99739
2018-05-13T12:55:53.000Z,99842
2018-05-13T12:57:08.000Z,99839
2018-05-13T12:59:08.000Z,99851
2018-05-13T13:00:08.000Z,99852
2018-05-13T13:02:08.000Z,99839
2018-05-13T13:03:08.000Z,99839
2018-05-13T13:04:53.000Z,99829
2018-05-13T13:06:08.000Z,99834
2018-05-13T13:08:08.000Z,99830
2018-05-13T13:10:08.000Z,99835
2018-05-13T13:11:08.000Z,99837
2018-05-13T13:12:53.000Z,99849
2018-05-13T13:14:08.000Z,99857
2018-05-13T13:16:08.000Z,99884
2018-05-13T13:17:08.000Z,99892
2018-05-13T13:19:08.000Z,99896
2018-05-13T13:21:08.000Z,99885
2018-05-13T13:22:08.000Z,99879
2018-05-13T13:23:08.000Z,99886
2018-05-13T13:24:08.000Z,99889
2018-05-13T13:25:08.000Z,99883
2018-05-13T13:27:08.000Z,99875
2018-05-13T13:28:08.000Z,99877
2018-05-13T13:29:53.000Z,99863
2018-05-13T13:31:08.000Z,99862
2018-05-13T13:32:08.000Z,99864
2018-05-13T13:34:08.000Z,99878
2018-05-13T13:36:08.000Z,99881
2018-05-13T13:38:08.000Z,99882
2018-05-13T13:39:08.000Z,99875
2018-05-13T13:41:08.000Z,99869
2018-05-13T13:42:53.000Z,99867
2018-05-13T13:44:08.000Z,99863
2018-05-13T13:46:08.000Z,99867
2018-05-13T13:47:37.000Z,99872
2018-05-13T13:49:08.000Z,99873
2018-05-13T13:51:08.000Z,99876
2018-05-13T13:52:08.000Z,99875
2018-05-13T13:54:09.000Z,99871
2018-05-13T13:56:08.000Z,99870
2018-05-13T13:57:09.000Z,99862
2018-05-13T13:58:09.000Z,99866
2018-05-13T14:00:08.000Z,99869
2018-05-13T14:01:08.000Z,99871
2018-05-13T14:02:08.000Z,99872
2018-05-13T14:03:38.000Z,99874
2018-05-13T14:05:09.000Z,99878
2018-05-13T14:06:53.000Z,99891
2018-05-13T14:08:08.000Z,99890
2018-05-13T14:09:09.000Z,99890
2018-05-13T14:11:09.000Z,99882
2018-05-13T14:13:08.000Z,99886
2018-05-13T14:14:09.000Z,99879
2018-05-13T14:16:09.000Z,99879
2018-05-13T14:18:09.000Z,99872
2018-05-13T14:20:08.000Z,99875
2018-05-13T14:21:09.000Z,99874
2018-05-13T14:22:09.000Z,99872
2018-05-13T14:24:09.000Z,99864
2018-05-13T14:26:08.000Z,99870
2018-05-13T14:27:08.000Z,99869
2018-05-13T14:28:09.000Z,99865
2018-05-13T14:30:09.000Z,99861
2018-05-13T14:31:53.000Z,99868
2018-05-13T14:33:09.000Z,99865
2018-05-13T14:35:08.000Z,99861
2018-05-13T14:37:08.000Z,99869
2018-05-13T14:38:09.000Z,99869
2018-05-13T14:40:09.000Z,99864
2018-05-13T14:41:38.000Z,99860
2018-05-13T14:43:08.000Z,99862
2018-05-13T14:44:09.000Z,99857
2018-05-13T14:45:09.000Z,99856
2018-05-13T14:47:09.000Z,99855
2018-05-13T14:49:09.000Z,99848
2018-05-13T14:50:53.000Z,99852
2018-05-13T14:52:09.000Z,99843
2018-05-13T14:54:09.000Z,99843
2018-05-13T14:55:09.000Z,99848
2018-05-13T14:57:09.000Z,99846
2018-05-13T14:59:09.000Z,99842
2018-05-13T15:00:38.000Z,99843
2018-05-13T15:02:08.000Z,99841
2018-05-13T15:03:09.000Z,99849
2018-05-13T15:04:53.000Z,99843
2018-05-13T15:06:09.000Z,99858
2018-05-13T15:07:38.000Z,99865
2018-05-13T15:09:09.000Z,99872
2018-05-13T15:10:09.000Z,99874
2018-05-13T15:12:08.000Z,99885
2018-05-13T15:14:09.000Z,99891
2018-05-13T15:16:08.000Z,99894
2018-05-13T15:18:08.000Z,99894
2018-05-13T15:20:08.000Z,99899
2018-05-13T15:21:09.000Z,99900
2018-05-13T15:23:08.000Z,99895
2018-05-13T15:24:09.000Z,99897
2018-05-13T15:25:09.000Z,99891
2018-05-13T15:27:08.000Z,99891
2018-05-13T15:29:09.000Z,99882
2018-05-13T15:30:09.000Z,99889
2018-05-13T15:32:08.000Z,99890
2018-05-13T15:33:09.000Z,99890
2018-05-13T15:35:08.000Z,99886
2018-05-13T15:36:09.000Z,99892
2018-05-13T15:37:09.000Z,99895
2018-05-13T15:39:09.000Z,99895
2018-05-13T15:41:08.000Z,99893
2018-05-13T15:42:09.000Z,99895
2018-05-13T15:44:09.000Z,99892
2018-05-13T15:46:09.000Z,99891
2018-05-13T15:47:53.000Z,99889
2018-05-13T15:49:08.000Z,99879
2018-05-13T15:51:09.000Z,99881
2018-05-13T15:53:09.000Z,99887
2018-05-13T15:55:09.000Z,99883
2018-05-13T15:56:53.000Z,99875
2018-05-13T15:58:09.000Z,99880
2018-05-13T16:00:09.000Z,99885
2018-05-13T16:01:38.000Z,99887
2018-05-13T16:03:08.000Z,99884
2018-05-13T16:04:08.000Z,99881
2018-05-13T16:06:08.000Z,99873
2018-05-13T16:07:08.000Z,99873
2018-05-13T16:08:53.000Z,99869
2018-05-13T16:10:08.000Z,99865
2018-05-13T16:11:08.000Z,99862
2018-05-13T16:13:08.000Z,99859
2018-05-13T16:14:53.000Z,99852
2018-05-13T16:16:08.000Z,99847
2018-05-13T16:17:08.000Z,99846
2018-05-13T16:18:08.000Z,99848
2018-05-13T16:19:08.000Z,99849
2018-05-13T16:20:08.000Z,99846
2018-05-13T16:22:08.000Z,99842
2018-05-13T16:23:08.000Z,99842
2018-05-13T16:24:08.000Z,99839
2018-05-13T16:26:08.000Z,99842
2018-05-13T16:27:08.000Z,99835
2018-05-13T16:29:08.000Z,99836
2018-05-13T16:30:08.000Z,99829
2018-05-13T16:32:08.000Z,99837
2018-05-13T16:34:08.000Z,99833
2018-05-13T16:36:08.000Z,99839
2018-05-13T16:38:08.000Z,99842
2018-05-13T16:40:08.000Z,99853
2018-05-13T16:42:08.000Z,99847
2018-05-13T16:44:08.000Z,99846
2018-05-13T16:46:08.000Z,99842
2018-05-13T16:48:08.000Z,99840
2018-05-13T16:49:53.000Z,99842
2018-05-13T16:50:53.000Z,99841
2018-05-13T16:52:08.000Z,99842
2018-05-13T16:53:08.000Z,99838
2018-05-13T16:55:08.000Z,99843
2018-05-13T16:57:08.000Z,99840
2018-05-13T16:59:08.000Z,99843
2018-05-13T17:01:08.000Z,99847
2018-05-13T17:03:08.000Z,99847
2018-05-13T17:04:08.000Z,99847
2018-05-13T17:06:09.000Z,99852
2018-05-13T17:07:38.000Z,99849
2018-05-13T17:09:09.000Z,99850
2018-05-13T17:11:09.000Z,99846
2018-05-13T17:13:09.000Z,99847
2018-05-13T17:15:09.000Z,99844
2018-05-13T17:17:09.000Z,99843
2018-05-13T17:19:09.000Z,99849
2018-05-13T17:20:09.000Z,99841
2018-05-13T17:22:09.000Z,99849
2018-05-13T17:24:09.000Z,99847
2018-05-13T17:25:09.000Z,99851
2018-05-13T17:26:54.000Z,99858
2018-05-13T17:28:09.000Z,99861
2018-05-13T17:30:09.000Z,99862
2018-05-13T17:31:09.000Z,99858
2018-05-13T17:33:09.000Z,99863
2018-05-13T17:35:09.000Z,99871
2018-05-13T17:37:09.000Z,99870
2018-05-13T17:39:09.000Z,99880
2018-05-13T17:41:09.000Z,99875
2018-05-13T17:43:09.000Z,99873
2018-05-13T17:45:09.000Z,99881
2018-05-13T17:46:09.000Z,99891
2018-05-13T17:48:09.000Z,99901
2018-05-13T17:49:09.000Z,99903
2018-05-13T17:51:09.000Z,99921
2018-05-13T17:53:09.000Z,99934
2018-05-13T17:55:09.000Z,99944
2018-05-13T17:57:09.000Z,99957
2018-05-13T17:58:09.000Z,99954
2018-05-13T17:59:09.000Z,99957
2018-05-13T18:00:54.000Z,99966
2018-05-13T18:02:09.000Z,99960
2018-05-13T18:04:09.000Z,99961
2018-05-13T18:05:09.000Z,99958
2018-05-13T18:07:09.000Z,99950
2018-05-13T18:09:09.000Z,99948
2018-05-13T18:11:09.000Z,99947
2018-05-13T18:12:09.000Z,99947
2018-05-13T18:14:09.000Z,99944
2018-05-13T18:16:09.000Z,99939
2018-05-13T18:17:09.000Z,99934
2018-05-13T18:19:09.000Z,99930
2018-05-13T18:20:09.000Z,99929
2018-05-13T18:22:09.000Z,99925
2018-05-13T18:24:09.000Z,99915
2018-05-13T18:25:53.000Z,99909
2018-05-13T18:27:09.000Z,99903
2018-05-13T18:28:09.000Z,99904
2018-05-13T18:30:09.000Z,99893
2018-05-13T18:32:09.000Z,99885
2018-05-13T18:34:09.000Z,99886
2018-05-13T18:36:09.000Z,99882
2018-05-13T18:37:09.000Z,99884
2018-05-13T18:39:09.000Z,99877
2018-05-13T18:40:09.000Z,99879
2018-05-13T18:42:09.000Z,99880
2018-05-13T18:43:09.000Z,99874
2018-05-13T18:45:09.000Z,99877
2018-05-13T18:47:09.000Z,99874
2018-05-13T18:48:53.000Z,99871
2018-05-13T18:50:09.000Z,99875
2018-05-13T18:51:09.000Z,99870
2018-05-13T18:52:53.000Z,99870
2018-05-13T18:55:09.000Z,99869
2018-05-13T18:56:53.000Z,99871
2018-05-13T18:58:09.000Z,99866
2018-05-13T18:59:09.000Z,99869
2018-05-13T19:00:09.000Z,99863
2018-05-13T19:02:09.000Z,99857
2018-05-13T19:04:09.000Z,99857
2018-05-13T19:06:09.000Z,99862
2018-05-13T19:07:09.000Z,99858
2018-05-13T19:08:09.000Z,99857
2018-05-13T19:10:09.000Z,99848
2018-05-13T19:12:09.000Z,99852
2018-05-13T19:13:09.000Z,99852
2018-05-13T19:15:09.000Z,99845
2018-05-13T19:17:09.000Z,99853
2018-05-13T19:18:53.000Z,99856
2018-05-13T19:20:09.000Z,99859
2018-05-13T19:21:09.000Z,99856
2018-05-13T19:22:53.000Z,99855
2018-05-13T19:24:09.000Z,99856
2018-05-13T19:26:09.000Z,99855
2018-05-13T19:28:09.000Z,99861
2018-05-13T19:29:53.000Z,99856
2018-05-13T19:31:09.000Z,99854
2018-05-13T19:33:09.000Z,99853
2018-05-13T19:34:09.000Z,99854
2018-05-13T19:35:53.000Z,99853
2018-05-13T19:37:09.000Z,99852
2018-05-13T19:38:09.000Z,99853
2018-05-13T19:40:09.000Z,99850
2018-05-13T19:41:09.000Z,99847
2018-05-13T19:43:09.000Z,99847
2018-05-13T19:45:09.000Z,99841
2018-05-13T19:47:09.000Z,99848
2018-05-13T19:48:09.000Z,99843
2018-05-13T19:50:09.000Z,99851
2018-05-13T19:52:09.000Z,99855
2018-05-13T19:53:09.000Z,99860
2018-05-13T19:54:09.000Z,99869
2018-05-13T19:56:09.000Z,99873
2018-05-13T19:57:53.000Z,99888
2018-05-13T19:59:09.000Z,99896
2018-05-13T20:01:09.000Z,99898
2018-05-13T20:03:09.000Z,99906
2018-05-13T20:04:09.000Z,99913
2018-05-13T20:06:09.000Z,99909
2018-05-13T20:07:09.000Z,99908
2018-05-13T20:09:09.000Z,99921
2018-05-13T20:11:09.000Z,99942
2018-05-13T20:13:09.000Z,99959
2018-05-13T20:14:09.000Z,99968
2018-05-13T20:15:09.000Z,99974
2018-05-13T20:17:08.000Z,99980
2018-05-13T20:18:08.000Z,99985
2018-05-13T20:20:08.000Z,99984
2018-05-13T20:22:08.000Z,99980
2018-05-13T20:24:08.000Z,99982
2018-05-13T20:26:08.000Z,99990
2018-05-13T20:27:53.000Z,99983
2018-05-13T20:29:08.000Z,99978
2018-05-13T20:30:08.000Z,99973
2018-05-13T20:32:08.000Z,99986
2018-05-13T20:34:08.000Z,99990
2018-05-13T20:36:08.000Z,99995
2018-05-13T20:38:08.000Z,99992
2018-05-13T20:40:08.000Z,100000